sensor_id;sensor_type;location;lat;lon;timestamp;P1;durP1;ratioP1;P2;durP2;ratioP2
66739;SDS011;53653;52.188;8.602;2022-07-29T00:00:10;5.50;;;1.60;;
66739;SDS011;53653;52.188;8.602;2022-07-29T00:02:36;7.82;;;1.83;;
66739;SDS011;53653;52.188;8.602;2022-07-29T00:05:02;8.57;;;1.43;;
66739;SDS011;53653;52.188;8.602;2022-07-29T00:07:29;6.32;;;1.77;;
66739;SDS011;53653;52.188;8.602;2022-07-29T00:09:54;9.87;;;1.53;;
66739;SDS011;53653;52.188;8.602;2022-07-29T00:12:20;8.07;;;1.60;;
66739;SDS011;53653;52.188;8.602;2022-07-29T00:14:47;6.45;;;1.45;;
66739;SDS011;53653;52.188;8.602;2022-07-29T00:17:12;8.97;;;1.63;;
66739;SDS011;53653;52.188;8.602;2022-07-29T00:19:38;11.13;;;2.03;;
66739;SDS011;53653;52.188;8.602;2022-07-29T00:22:03;7.53;;;1.60;;
66739;SDS011;53653;52.188;8.602;2022-07-29T00:24:29;5.75;;;1.50;;
66739;SDS011;53653;52.188;8.602;2022-07-29T00:26:54;5.53;;;1.60;;
66739;SDS011;53653;52.188;8.602;2022-07-29T00:29:20;7.40;;;1.47;;
66739;SDS011;53653;52.188;8.602;2022-07-29T00:31:45;7.33;;;1.70;;
66739;SDS011;53653;52.188;8.602;2022-07-29T00:34:10;8.40;;;1.80;;
66739;SDS011;53653;52.188;8.602;2022-07-29T00:36:55;7.30;;;1.60;;
66739;SDS011;53653;52.188;8.602;2022-07-29T00:39:20;5.60;;;1.50;;
66739;SDS011;53653;52.188;8.602;2022-07-29T00:41:46;5.67;;;1.50;;
66739;SDS011;53653;52.188;8.602;2022-07-29T00:44:12;6.63;;;2.00;;
66739;SDS011;53653;52.188;8.602;2022-07-29T00:46:37;6.93;;;1.45;;
66739;SDS011;53653;52.188;8.602;2022-07-29T00:49:03;6.20;;;1.53;;
66739;SDS011;53653;52.188;8.602;2022-07-29T00:51:28;8.97;;;1.67;;
66739;SDS011;53653;52.188;8.602;2022-07-29T00:53:55;6.20;;;1.90;;
66739;SDS011;53653;52.188;8.602;2022-07-29T00:56:21;5.60;;;1.65;;
66739;SDS011;53653;52.188;8.602;2022-07-29T00:58:46;8.40;;;1.70;;
66739;SDS011;53653;52.188;8.602;2022-07-29T01:01:14;10.30;;;1.80;;
66739;SDS011;53653;52.188;8.602;2022-07-29T01:03:39;6.75;;;1.50;;
66739;SDS011;53653;52.188;8.602;2022-07-29T01:06:04;6.37;;;1.60;;
66739;SDS011;53653;52.188;8.602;2022-07-29T01:08:31;6.43;;;1.70;;
66739;SDS011;53653;52.188;8.602;2022-07-29T01:10:57;7.80;;;1.50;;
66739;SDS011;53653;52.188;8.602;2022-07-29T01:13:25;7.05;;;1.90;;
66739;SDS011;53653;52.188;8.602;2022-07-29T01:15:52;5.15;;;1.48;;
66739;SDS011;53653;52.188;8.602;2022-07-29T01:18:27;7.80;;;1.80;;
66739;SDS011;53653;52.188;8.602;2022-07-29T01:23:50;8.33;;;1.70;;
66739;SDS011;53653;52.188;8.602;2022-07-29T01:26:45;6.18;;;1.70;;
66739;SDS011;53653;52.188;8.602;2022-07-29T01:29:33;5.28;;;1.75;;
66739;SDS011;53653;52.188;8.602;2022-07-29T01:32:08;8.18;;;1.73;;
66739;SDS011;53653;52.188;8.602;2022-07-29T01:34:50;6.97;;;1.58;;
66739;SDS011;53653;52.188;8.602;2022-07-29T01:37:24;6.27;;;1.50;;
66739;SDS011;53653;52.188;8.602;2022-07-29T01:39:54;7.60;;;1.65;;
66739;SDS011;53653;52.188;8.602;2022-07-29T01:42:35;7.60;;;1.50;;
66739;SDS011;53653;52.188;8.602;2022-07-29T01:51:12;6.00;;;1.60;;
66739;SDS011;53653;52.188;8.602;2022-07-29T01:56:29;7.15;;;1.38;;
66739;SDS011;53653;52.188;8.602;2022-07-29T01:58:59;5.68;;;1.65;;
66739;SDS011;53653;52.188;8.602;2022-07-29T02:01:25;6.90;;;1.73;;
66739;SDS011;53653;52.188;8.602;2022-07-29T02:03:52;4.93;;;1.50;;
66739;SDS011;53653;52.188;8.602;2022-07-29T02:06:20;5.40;;;1.48;;
66739;SDS011;53653;52.188;8.602;2022-07-29T02:08:47;5.70;;;1.70;;
66739;SDS011;53653;52.188;8.602;2022-07-29T02:11:14;7.95;;;1.80;;
66739;SDS011;53653;52.188;8.602;2022-07-29T02:13:40;7.47;;;1.85;;
66739;SDS011;53653;52.188;8.602;2022-07-29T02:16:07;6.67;;;1.40;;
66739;SDS011;53653;52.188;8.602;2022-07-29T02:18:35;5.43;;;1.52;;
66739;SDS011;53653;52.188;8.602;2022-07-29T02:21:02;9.55;;;1.60;;
66739;SDS011;53653;52.188;8.602;2022-07-29T02:23:28;4.78;;;1.40;;
66739;SDS011;53653;52.188;8.602;2022-07-29T02:25:56;5.47;;;1.60;;
66739;SDS011;53653;52.188;8.602;2022-07-29T02:28:24;6.28;;;1.50;;
66739;SDS011;53653;52.188;8.602;2022-07-29T02:30:52;8.65;;;1.80;;
66739;SDS011;53653;52.188;8.602;2022-07-29T02:33:20;9.65;;;1.45;;
66739;SDS011;53653;52.188;8.602;2022-07-29T02:35:48;10.13;;;1.70;;
66739;SDS011;53653;52.188;8.602;2022-07-29T02:38:15;6.60;;;1.67;;
66739;SDS011;53653;52.188;8.602;2022-07-29T02:41:04;7.05;;;1.52;;
66739;SDS011;53653;52.188;8.602;2022-07-29T02:43:36;6.93;;;1.80;;
66739;SDS011;53653;52.188;8.602;2022-07-29T02:46:02;5.93;;;1.30;;
66739;SDS011;53653;52.188;8.602;2022-07-29T02:48:36;6.10;;;1.65;;
66739;SDS011;53653;52.188;8.602;2022-07-29T02:53:57;10.18;;;1.77;;
66739;SDS011;53653;52.188;8.602;2022-07-29T02:56:30;6.85;;;1.70;;
66739;SDS011;53653;52.188;8.602;2022-07-29T02:59:01;6.15;;;1.38;;
66739;SDS011;53653;52.188;8.602;2022-07-29T03:01:31;6.72;;;1.38;;
66739;SDS011;53653;52.188;8.602;2022-07-29T03:03:59;6.10;;;1.67;;
66739;SDS011;53653;52.188;8.602;2022-07-29T03:06:27;6.93;;;1.70;;
66739;SDS011;53653;52.188;8.602;2022-07-29T03:08:54;5.25;;;1.40;;
66739;SDS011;53653;52.188;8.602;2022-07-29T03:11:20;4.25;;;1.33;;
66739;SDS011;53653;52.188;8.602;2022-07-29T03:13:46;5.97;;;1.58;;
66739;SDS011;53653;52.188;8.602;2022-07-29T03:16:12;6.97;;;1.70;;
66739;SDS011;53653;52.188;8.602;2022-07-29T03:18:39;6.32;;;1.50;;
66739;SDS011;53653;52.188;8.602;2022-07-29T03:21:04;6.70;;;1.70;;
66739;SDS011;53653;52.188;8.602;2022-07-29T03:23:30;6.82;;;1.70;;
66739;SDS011;53653;52.188;8.602;2022-07-29T03:25:55;6.40;;;1.60;;
66739;SDS011;53653;52.188;8.602;2022-07-29T03:28:21;7.27;;;1.70;;
66739;SDS011;53653;52.188;8.602;2022-07-29T03:30:47;7.53;;;1.73;;
66739;SDS011;53653;52.188;8.602;2022-07-29T03:33:13;5.35;;;1.58;;
66739;SDS011;53653;52.188;8.602;2022-07-29T03:35:39;6.47;;;1.60;;
66739;SDS011;53653;52.188;8.602;2022-07-29T03:38:04;5.03;;;1.40;;
66739;SDS011;53653;52.188;8.602;2022-07-29T03:43:16;6.65;;;2.00;;
66739;SDS011;53653;52.188;8.602;2022-07-29T03:45:44;8.43;;;1.70;;
66739;SDS011;53653;52.188;8.602;2022-07-29T03:48:13;6.68;;;1.40;;
66739;SDS011;53653;52.188;8.602;2022-07-29T03:50:41;7.20;;;1.45;;
66739;SDS011;53653;52.188;8.602;2022-07-29T03:53:07;9.00;;;1.60;;
66739;SDS011;53653;52.188;8.602;2022-07-29T03:55:37;6.57;;;1.70;;
66739;SDS011;53653;52.188;8.602;2022-07-29T03:58:07;8.88;;;2.13;;
66739;SDS011;53653;52.188;8.602;2022-07-29T04:00:33;8.23;;;1.50;;
66739;SDS011;53653;52.188;8.602;2022-07-29T04:03:00;6.75;;;1.75;;
66739;SDS011;53653;52.188;8.602;2022-07-29T04:05:28;7.63;;;1.83;;
66739;SDS011;53653;52.188;8.602;2022-07-29T04:07:53;7.50;;;2.03;;
66739;SDS011;53653;52.188;8.602;2022-07-29T04:10:19;6.83;;;1.50;;
66739;SDS011;53653;52.188;8.602;2022-07-29T04:12:45;8.17;;;1.50;;
66739;SDS011;53653;52.188;8.602;2022-07-29T04:15:11;7.22;;;1.80;;
66739;SDS011;53653;52.188;8.602;2022-07-29T04:17:37;8.68;;;1.40;;
66739;SDS011;53653;52.188;8.602;2022-07-29T04:20:03;6.37;;;1.60;;
66739;SDS011;53653;52.188;8.602;2022-07-29T04:22:29;6.30;;;1.70;;
66739;SDS011;53653;52.188;8.602;2022-07-29T04:24:54;10.03;;;2.27;;
66739;SDS011;53653;52.188;8.602;2022-07-29T04:27:19;6.80;;;1.33;;
66739;SDS011;53653;52.188;8.602;2022-07-29T04:29:45;9.68;;;2.10;;
66739;SDS011;53653;52.188;8.602;2022-07-29T04:32:10;6.13;;;1.70;;
66739;SDS011;53653;52.188;8.602;2022-07-29T04:34:36;8.83;;;1.60;;
66739;SDS011;53653;52.188;8.602;2022-07-29T04:37:01;5.47;;;1.70;;
66739;SDS011;53653;52.188;8.602;2022-07-29T04:39:29;6.00;;;1.83;;
66739;SDS011;53653;52.188;8.602;2022-07-29T04:41:55;8.03;;;2.47;;
66739;SDS011;53653;52.188;8.602;2022-07-29T04:44:20;6.28;;;1.52;;
66739;SDS011;53653;52.188;8.602;2022-07-29T04:46:46;9.65;;;1.90;;
66739;SDS011;53653;52.188;8.602;2022-07-29T04:49:12;6.87;;;1.63;;
66739;SDS011;53653;52.188;8.602;2022-07-29T04:51:38;9.80;;;2.67;;
66739;SDS011;53653;52.188;8.602;2022-07-29T04:54:03;7.70;;;1.48;;
66739;SDS011;53653;52.188;8.602;2022-07-29T04:56:29;10.50;;;1.93;;
66739;SDS011;53653;52.188;8.602;2022-07-29T04:58:54;6.27;;;1.70;;
66739;SDS011;53653;52.188;8.602;2022-07-29T05:01:19;7.25;;;2.03;;
66739;SDS011;53653;52.188;8.602;2022-07-29T05:03:45;8.73;;;1.90;;
66739;SDS011;53653;52.188;8.602;2022-07-29T05:06:11;6.73;;;1.83;;
66739;SDS011;53653;52.188;8.602;2022-07-29T05:08:36;11.13;;;1.80;;
66739;SDS011;53653;52.188;8.602;2022-07-29T05:11:02;7.03;;;2.05;;
66739;SDS011;53653;52.188;8.602;2022-07-29T05:13:28;4.83;;;1.33;;
66739;SDS011;53653;52.188;8.602;2022-07-29T05:15:54;10.35;;;1.70;;
66739;SDS011;53653;52.188;8.602;2022-07-29T05:18:20;5.73;;;1.57;;
66739;SDS011;53653;52.188;8.602;2022-07-29T05:20:45;7.25;;;1.70;;
66739;SDS011;53653;52.188;8.602;2022-07-29T05:23:10;9.07;;;1.70;;
66739;SDS011;53653;52.188;8.602;2022-07-29T05:25:37;8.07;;;1.60;;
66739;SDS011;53653;52.188;8.602;2022-07-29T05:28:03;9.67;;;1.70;;
66739;SDS011;53653;52.188;8.602;2022-07-29T05:30:29;7.13;;;1.83;;
66739;SDS011;53653;52.188;8.602;2022-07-29T05:32:54;7.77;;;1.80;;
66739;SDS011;53653;52.188;8.602;2022-07-29T05:35:19;7.33;;;1.73;;
66739;SDS011;53653;52.188;8.602;2022-07-29T05:37:45;7.10;;;1.83;;
66739;SDS011;53653;52.188;8.602;2022-07-29T05:40:10;7.43;;;1.80;;
66739;SDS011;53653;52.188;8.602;2022-07-29T05:42:36;7.00;;;1.60;;
66739;SDS011;53653;52.188;8.602;2022-07-29T05:45:02;6.18;;;1.55;;
66739;SDS011;53653;52.188;8.602;2022-07-29T05:47:27;10.27;;;2.10;;
66739;SDS011;53653;52.188;8.602;2022-07-29T05:49:53;7.07;;;1.90;;
66739;SDS011;53653;52.188;8.602;2022-07-29T05:52:19;7.33;;;1.80;;
66739;SDS011;53653;52.188;8.602;2022-07-29T05:54:44;5.97;;;2.07;;
66739;SDS011;53653;52.188;8.602;2022-07-29T05:57:16;5.90;;;1.60;;
66739;SDS011;53653;52.188;8.602;2022-07-29T05:59:46;5.53;;;1.60;;
66739;SDS011;53653;52.188;8.602;2022-07-29T06:02:12;6.10;;;1.57;;
66739;SDS011;53653;52.188;8.602;2022-07-29T06:04:37;7.28;;;2.20;;
66739;SDS011;53653;52.188;8.602;2022-07-29T06:07:06;8.27;;;1.63;;
66739;SDS011;53653;52.188;8.602;2022-07-29T06:09:32;5.97;;;1.67;;
66739;SDS011;53653;52.188;8.602;2022-07-29T06:11:58;9.00;;;2.15;;
66739;SDS011;53653;52.188;8.602;2022-07-29T06:14:24;7.87;;;1.97;;
66739;SDS011;53653;52.188;8.602;2022-07-29T06:16:50;8.80;;;1.98;;
66739;SDS011;53653;52.188;8.602;2022-07-29T06:19:16;10.93;;;1.63;;
66739;SDS011;53653;52.188;8.602;2022-07-29T06:21:44;5.38;;;1.50;;
66739;SDS011;53653;52.188;8.602;2022-07-29T06:24:10;12.23;;;2.13;;
66739;SDS011;53653;52.188;8.602;2022-07-29T06:26:37;7.47;;;1.65;;
66739;SDS011;53653;52.188;8.602;2022-07-29T06:29:03;7.53;;;1.77;;
66739;SDS011;53653;52.188;8.602;2022-07-29T06:31:29;8.63;;;1.90;;
66739;SDS011;53653;52.188;8.602;2022-07-29T06:33:54;8.00;;;2.13;;
66739;SDS011;53653;52.188;8.602;2022-07-29T06:36:19;5.88;;;1.75;;
66739;SDS011;53653;52.188;8.602;2022-07-29T06:38:45;6.83;;;1.97;;
66739;SDS011;53653;52.188;8.602;2022-07-29T06:41:10;8.87;;;2.00;;
66739;SDS011;53653;52.188;8.602;2022-07-29T06:43:38;7.90;;;2.10;;
66739;SDS011;53653;52.188;8.602;2022-07-29T06:46:13;8.25;;;1.90;;
66739;SDS011;53653;52.188;8.602;2022-07-29T06:48:39;10.13;;;1.92;;
66739;SDS011;53653;52.188;8.602;2022-07-29T06:51:07;12.07;;;1.97;;
66739;SDS011;53653;52.188;8.602;2022-07-29T06:53:33;5.88;;;1.45;;
66739;SDS011;53653;52.188;8.602;2022-07-29T06:55:59;11.43;;;2.17;;
66739;SDS011;53653;52.188;8.602;2022-07-29T06:58:26;8.48;;;2.00;;
66739;SDS011;53653;52.188;8.602;2022-07-29T07:00:52;6.53;;;1.70;;
66739;SDS011;53653;52.188;8.602;2022-07-29T07:03:18;9.32;;;1.70;;
66739;SDS011;53653;52.188;8.602;2022-07-29T07:05:44;8.65;;;1.90;;
66739;SDS011;53653;52.188;8.602;2022-07-29T07:08:11;7.28;;;1.80;;
66739;SDS011;53653;52.188;8.602;2022-07-29T07:10:37;10.00;;;1.70;;
66739;SDS011;53653;52.188;8.602;2022-07-29T07:13:03;5.95;;;1.70;;
66739;SDS011;53653;52.188;8.602;2022-07-29T07:15:29;6.30;;;1.60;;
66739;SDS011;53653;52.188;8.602;2022-07-29T07:17:54;5.43;;;1.60;;
66739;SDS011;53653;52.188;8.602;2022-07-29T07:20:20;9.50;;;2.10;;
66739;SDS011;53653;52.188;8.602;2022-07-29T07:22:45;8.53;;;1.63;;
66739;SDS011;53653;52.188;8.602;2022-07-29T07:25:11;7.13;;;1.77;;
66739;SDS011;53653;52.188;8.602;2022-07-29T07:27:38;7.85;;;1.70;;
66739;SDS011;53653;52.188;8.602;2022-07-29T07:30:05;6.45;;;1.70;;
66739;SDS011;53653;52.188;8.602;2022-07-29T07:32:32;5.87;;;1.60;;
66739;SDS011;53653;52.188;8.602;2022-07-29T07:34:58;8.00;;;1.60;;
66739;SDS011;53653;52.188;8.602;2022-07-29T07:37:24;7.72;;;1.70;;
66739;SDS011;53653;52.188;8.602;2022-07-29T07:39:50;10.87;;;2.30;;
66739;SDS011;53653;52.188;8.602;2022-07-29T07:42:16;7.43;;;2.08;;
66739;SDS011;53653;52.188;8.602;2022-07-29T07:44:42;7.33;;;1.87;;
66739;SDS011;53653;52.188;8.602;2022-07-29T07:47:07;7.65;;;2.00;;
66739;SDS011;53653;52.188;8.602;2022-07-29T07:49:32;6.00;;;1.80;;
66739;SDS011;53653;52.188;8.602;2022-07-29T07:51:58;6.50;;;1.80;;
66739;SDS011;53653;52.188;8.602;2022-07-29T07:54:23;7.50;;;1.85;;
66739;SDS011;53653;52.188;8.602;2022-07-29T07:56:49;7.13;;;1.70;;
66739;SDS011;53653;52.188;8.602;2022-07-29T07:59:15;5.07;;;1.57;;
66739;SDS011;53653;52.188;8.602;2022-07-29T08:01:41;7.07;;;1.85;;
66739;SDS011;53653;52.188;8.602;2022-07-29T08:04:07;9.33;;;1.90;;
66739;SDS011;53653;52.188;8.602;2022-07-29T08:06:33;7.55;;;1.83;;
66739;SDS011;53653;52.188;8.602;2022-07-29T08:09:00;7.47;;;1.77;;
66739;SDS011;53653;52.188;8.602;2022-07-29T08:11:27;6.30;;;1.60;;
66739;SDS011;53653;52.188;8.602;2022-07-29T08:13:52;6.30;;;1.70;;
66739;SDS011;53653;52.188;8.602;2022-07-29T08:16:17;9.97;;;1.80;;
66739;SDS011;53653;52.188;8.602;2022-07-29T08:18:43;7.20;;;2.20;;
66739;SDS011;53653;52.188;8.602;2022-07-29T08:21:10;8.43;;;2.27;;
66739;SDS011;53653;52.188;8.602;2022-07-29T08:23:36;5.88;;;1.85;;
66739;SDS011;53653;52.188;8.602;2022-07-29T08:26:11;8.32;;;1.70;;
66739;SDS011;53653;52.188;8.602;2022-07-29T08:28:38;4.57;;;1.23;;
66739;SDS011;53653;52.188;8.602;2022-07-29T08:31:04;7.53;;;2.05;;
66739;SDS011;53653;52.188;8.602;2022-07-29T08:33:29;7.20;;;1.83;;
66739;SDS011;53653;52.188;8.602;2022-07-29T08:35:55;7.15;;;2.00;;
66739;SDS011;53653;52.188;8.602;2022-07-29T08:38:21;7.73;;;2.00;;
66739;SDS011;53653;52.188;8.602;2022-07-29T08:40:46;8.55;;;2.20;;
66739;SDS011;53653;52.188;8.602;2022-07-29T08:43:12;7.60;;;2.00;;
66739;SDS011;53653;52.188;8.602;2022-07-29T08:45:56;5.65;;;1.77;;
66739;SDS011;53653;52.188;8.602;2022-07-29T08:48:22;6.87;;;2.00;;
66739;SDS011;53653;52.188;8.602;2022-07-29T08:50:49;9.27;;;2.17;;
66739;SDS011;53653;52.188;8.602;2022-07-29T08:53:18;7.07;;;1.92;;
66739;SDS011;53653;52.188;8.602;2022-07-29T08:55:45;7.18;;;2.00;;
66739;SDS011;53653;52.188;8.602;2022-07-29T08:58:12;8.90;;;2.17;;
66739;SDS011;53653;52.188;8.602;2022-07-29T09:00:41;11.10;;;2.17;;
66739;SDS011;53653;52.188;8.602;2022-07-29T09:03:09;8.40;;;2.20;;
66739;SDS011;53653;52.188;8.602;2022-07-29T09:05:41;7.85;;;2.00;;
66739;SDS011;53653;52.188;8.602;2022-07-29T09:08:06;6.97;;;1.75;;
66739;SDS011;53653;52.188;8.602;2022-07-29T09:10:34;8.30;;;2.55;;
66739;SDS011;53653;52.188;8.602;2022-07-29T09:13:00;7.03;;;1.70;;
66739;SDS011;53653;52.188;8.602;2022-07-29T09:15:25;9.05;;;2.38;;
66739;SDS011;53653;52.188;8.602;2022-07-29T09:17:51;8.90;;;2.40;;
66739;SDS011;53653;52.188;8.602;2022-07-29T09:20:18;7.80;;;2.30;;
66739;SDS011;53653;52.188;8.602;2022-07-29T09:22:45;6.65;;;1.85;;
66739;SDS011;53653;52.188;8.602;2022-07-29T09:25:34;8.35;;;2.15;;
66739;SDS011;53653;52.188;8.602;2022-07-29T09:28:11;8.88;;;1.90;;
66739;SDS011;53653;52.188;8.602;2022-07-29T09:30:54;7.43;;;1.90;;
66739;SDS011;53653;52.188;8.602;2022-07-29T09:33:24;6.27;;;1.80;;
66739;SDS011;53653;52.188;8.602;2022-07-29T09:36:00;9.40;;;2.30;;
66739;SDS011;53653;52.188;8.602;2022-07-29T09:38:29;7.40;;;2.50;;
66739;SDS011;53653;52.188;8.602;2022-07-29T09:40:58;8.60;;;2.10;;
66739;SDS011;53653;52.188;8.602;2022-07-29T09:43:25;6.68;;;2.15;;
66739;SDS011;53653;52.188;8.602;2022-07-29T09:45:50;7.67;;;2.00;;
66739;SDS011;53653;52.188;8.602;2022-07-29T09:50:43;13.93;;;2.20;;
66739;SDS011;53653;52.188;8.602;2022-07-29T09:53:10;6.25;;;1.85;;
66739;SDS011;53653;52.188;8.602;2022-07-29T09:58:20;5.63;;;1.90;;
66739;SDS011;53653;52.188;8.602;2022-07-29T10:00:47;7.50;;;2.00;;
66739;SDS011;53653;52.188;8.602;2022-07-29T10:03:14;5.43;;;2.20;;
66739;SDS011;53653;52.188;8.602;2022-07-29T10:05:40;9.15;;;2.40;;
66739;SDS011;53653;52.188;8.602;2022-07-29T10:08:07;7.00;;;2.50;;
66739;SDS011;53653;52.188;8.602;2022-07-29T10:10:35;8.32;;;2.38;;
66739;SDS011;53653;52.188;8.602;2022-07-29T10:13:04;8.57;;;2.65;;
66739;SDS011;53653;52.188;8.602;2022-07-29T10:15:31;8.57;;;2.63;;
66739;SDS011;53653;52.188;8.602;2022-07-29T10:18:02;10.55;;;2.50;;
66739;SDS011;53653;52.188;8.602;2022-07-29T10:20:27;9.93;;;2.80;;
66739;SDS011;53653;52.188;8.602;2022-07-29T10:22:53;6.83;;;2.33;;
66739;SDS011;53653;52.188;8.602;2022-07-29T10:25:19;7.13;;;2.53;;
66739;SDS011;53653;52.188;8.602;2022-07-29T10:27:46;6.53;;;2.60;;
66739;SDS011;53653;52.188;8.602;2022-07-29T10:30:13;9.60;;;3.25;;
66739;SDS011;53653;52.188;8.602;2022-07-29T10:40:54;8.27;;;3.00;;
66739;SDS011;53653;52.188;8.602;2022-07-29T10:43:54;8.73;;;2.13;;
66739;SDS011;53653;52.188;8.602;2022-07-29T10:46:40;7.67;;;2.43;;
66739;SDS011;53653;52.188;8.602;2022-07-29T10:49:12;5.38;;;2.33;;
66739;SDS011;53653;52.188;8.602;2022-07-29T10:57:21;7.97;;;2.45;;
66739;SDS011;53653;52.188;8.602;2022-07-29T10:59:50;9.00;;;2.50;;
66739;SDS011;53653;52.188;8.602;2022-07-29T11:05:07;6.65;;;2.40;;
66739;SDS011;53653;52.188;8.602;2022-07-29T11:10:48;7.85;;;2.10;;
66739;SDS011;53653;52.188;8.602;2022-07-29T11:16:13;7.60;;;2.80;;
66739;SDS011;53653;52.188;8.602;2022-07-29T11:21:47;10.93;;;2.88;;
66739;SDS011;53653;52.188;8.602;2022-07-29T11:24:16;10.43;;;2.83;;
66739;SDS011;53653;52.188;8.602;2022-07-29T11:26:43;8.73;;;2.80;;
66739;SDS011;53653;52.188;8.602;2022-07-29T11:29:19;7.40;;;2.90;;
66739;SDS011;53653;52.188;8.602;2022-07-29T11:31:48;10.38;;;3.33;;
66739;SDS011;53653;52.188;8.602;2022-07-29T11:39:32;11.43;;;2.97;;
66739;SDS011;53653;52.188;8.602;2022-07-29T11:42:42;13.00;;;3.10;;
66739;SDS011;53653;52.188;8.602;2022-07-29T11:47:34;10.73;;;3.00;;
66739;SDS011;53653;52.188;8.602;2022-07-29T11:50:02;10.82;;;3.33;;
66739;SDS011;53653;52.188;8.602;2022-07-29T11:52:32;10.60;;;3.17;;
66739;SDS011;53653;52.188;8.602;2022-07-29T11:55:20;10.13;;;2.97;;
66739;SDS011;53653;52.188;8.602;2022-07-29T11:57:48;7.80;;;3.40;;
66739;SDS011;53653;52.188;8.602;2022-07-29T12:02:58;8.38;;;3.30;;
66739;SDS011;53653;52.188;8.602;2022-07-29T12:05:30;12.45;;;3.65;;
66739;SDS011;53653;52.188;8.602;2022-07-29T12:08:10;11.52;;;3.00;;
66739;SDS011;53653;52.188;8.602;2022-07-29T12:10:43;8.55;;;3.05;;
66739;SDS011;53653;52.188;8.602;2022-07-29T12:13:09;11.27;;;3.33;;
66739;SDS011;53653;52.188;8.602;2022-07-29T12:15:35;8.77;;;3.50;;
66739;SDS011;53653;52.188;8.602;2022-07-29T12:18:14;9.63;;;3.43;;
66739;SDS011;53653;52.188;8.602;2022-07-29T12:20:42;7.68;;;3.15;;
66739;SDS011;53653;52.188;8.602;2022-07-29T12:23:09;9.15;;;2.95;;
66739;SDS011;53653;52.188;8.602;2022-07-29T12:25:37;8.20;;;3.30;;
66739;SDS011;53653;52.188;8.602;2022-07-29T12:28:04;7.97;;;3.80;;
66739;SDS011;53653;52.188;8.602;2022-07-29T12:30:38;12.97;;;3.83;;
66739;SDS011;53653;52.188;8.602;2022-07-29T12:33:10;10.60;;;3.80;;
66739;SDS011;53653;52.188;8.602;2022-07-29T12:35:44;7.95;;;2.85;;
66739;SDS011;53653;52.188;8.602;2022-07-29T12:38:11;7.85;;;3.35;;
66739;SDS011;53653;52.188;8.602;2022-07-29T12:40:38;7.70;;;3.10;;
66739;SDS011;53653;52.188;8.602;2022-07-29T12:43:23;8.67;;;3.00;;
66739;SDS011;53653;52.188;8.602;2022-07-29T12:45:51;8.80;;;3.53;;
66739;SDS011;53653;52.188;8.602;2022-07-29T12:48:34;13.80;;;3.42;;
66739;SDS011;53653;52.188;8.602;2022-07-29T12:51:04;8.80;;;2.92;;
66739;SDS011;53653;52.188;8.602;2022-07-29T12:53:32;8.88;;;2.88;;
66739;SDS011;53653;52.188;8.602;2022-07-29T12:55:58;7.53;;;2.87;;
66739;SDS011;53653;52.188;8.602;2022-07-29T12:58:28;9.07;;;3.58;;
66739;SDS011;53653;52.188;8.602;2022-07-29T13:01:03;8.27;;;3.10;;
66739;SDS011;53653;52.188;8.602;2022-07-29T13:09:13;7.70;;;2.80;;
66739;SDS011;53653;52.188;8.602;2022-07-29T13:11:44;7.65;;;2.85;;
66739;SDS011;53653;52.188;8.602;2022-07-29T13:19:43;12.13;;;4.35;;
66739;SDS011;53653;52.188;8.602;2022-07-29T13:22:17;9.60;;;2.93;;
66739;SDS011;53653;52.188;8.602;2022-07-29T13:27:15;6.30;;;2.95;;
66739;SDS011;53653;52.188;8.602;2022-07-29T13:29:42;10.70;;;3.53;;
66739;SDS011;53653;52.188;8.602;2022-07-29T13:32:07;8.73;;;3.07;;
66739;SDS011;53653;52.188;8.602;2022-07-29T13:34:33;8.35;;;2.95;;
66739;SDS011;53653;52.188;8.602;2022-07-29T13:36:58;8.43;;;2.80;;
66739;SDS011;53653;52.188;8.602;2022-07-29T13:39:24;9.60;;;2.93;;
66739;SDS011;53653;52.188;8.602;2022-07-29T13:41:49;8.20;;;2.63;;
66739;SDS011;53653;52.188;8.602;2022-07-29T13:44:15;8.88;;;2.55;;
66739;SDS011;53653;52.188;8.602;2022-07-29T13:46:41;7.83;;;3.20;;
66739;SDS011;53653;52.188;8.602;2022-07-29T13:49:06;9.25;;;3.00;;
66739;SDS011;53653;52.188;8.602;2022-07-29T13:51:32;10.97;;;3.10;;
66739;SDS011;53653;52.188;8.602;2022-07-29T13:53:57;6.83;;;2.80;;
66739;SDS011;53653;52.188;8.602;2022-07-29T13:56:23;10.50;;;3.00;;
66739;SDS011;53653;52.188;8.602;2022-07-29T13:58:48;8.88;;;2.70;;
66739;SDS011;53653;52.188;8.602;2022-07-29T14:01:13;7.93;;;3.17;;
66739;SDS011;53653;52.188;8.602;2022-07-29T14:03:39;10.20;;;3.30;;
66739;SDS011;53653;52.188;8.602;2022-07-29T14:06:07;9.37;;;2.93;;
66739;SDS011;53653;52.188;8.602;2022-07-29T14:08:33;7.80;;;3.10;;
66739;SDS011;53653;52.188;8.602;2022-07-29T14:10:58;8.97;;;3.27;;
66739;SDS011;53653;52.188;8.602;2022-07-29T14:13:24;8.37;;;3.00;;
66739;SDS011;53653;52.188;8.602;2022-07-29T14:15:49;12.97;;;3.50;;
66739;SDS011;53653;52.188;8.602;2022-07-29T14:18:14;12.20;;;2.97;;
66739;SDS011;53653;52.188;8.602;2022-07-29T14:20:40;10.57;;;3.07;;
66739;SDS011;53653;52.188;8.602;2022-07-29T14:23:05;11.00;;;3.17;;
66739;SDS011;53653;52.188;8.602;2022-07-29T14:25:31;8.23;;;3.20;;
66739;SDS011;53653;52.188;8.602;2022-07-29T14:27:56;7.55;;;3.15;;
66739;SDS011;53653;52.188;8.602;2022-07-29T14:30:22;9.10;;;2.97;;
66739;SDS011;53653;52.188;8.602;2022-07-29T14:32:47;11.00;;;3.00;;
66739;SDS011;53653;52.188;8.602;2022-07-29T14:35:12;13.00;;;3.23;;
66739;SDS011;53653;52.188;8.602;2022-07-29T14:37:38;13.60;;;3.30;;
66739;SDS011;53653;52.188;8.602;2022-07-29T14:40:04;10.53;;;3.40;;
66739;SDS011;53653;52.188;8.602;2022-07-29T14:42:30;12.20;;;2.90;;
66739;SDS011;53653;52.188;8.602;2022-07-29T14:44:58;8.50;;;2.92;;
66739;SDS011;53653;52.188;8.602;2022-07-29T14:47:24;18.20;;;3.37;;
66739;SDS011;53653;52.188;8.602;2022-07-29T14:49:49;8.90;;;3.10;;
66739;SDS011;53653;52.188;8.602;2022-07-29T14:52:14;7.57;;;3.22;;
66739;SDS011;53653;52.188;8.602;2022-07-29T14:54:41;8.37;;;3.13;;
66739;SDS011;53653;52.188;8.602;2022-07-29T14:57:06;9.98;;;4.60;;
66739;SDS011;53653;52.188;8.602;2022-07-29T14:59:32;9.30;;;3.60;;
66739;SDS011;53653;52.188;8.602;2022-07-29T15:01:57;12.67;;;3.70;;
66739;SDS011;53653;52.188;8.602;2022-07-29T15:04:23;8.07;;;3.42;;
66739;SDS011;53653;52.188;8.602;2022-07-29T15:06:48;11.50;;;4.00;;
66739;SDS011;53653;52.188;8.602;2022-07-29T15:09:13;8.27;;;3.70;;
66739;SDS011;53653;52.188;8.602;2022-07-29T15:11:39;8.57;;;3.67;;
66739;SDS011;53653;52.188;8.602;2022-07-29T15:14:05;7.90;;;3.53;;
66739;SDS011;53653;52.188;8.602;2022-07-29T15:16:30;13.07;;;3.70;;
66739;SDS011;53653;52.188;8.602;2022-07-29T15:18:56;10.13;;;3.95;;
66739;SDS011;53653;52.188;8.602;2022-07-29T15:21:22;11.80;;;3.38;;
66739;SDS011;53653;52.188;8.602;2022-07-29T15:23:48;10.37;;;3.83;;
66739;SDS011;53653;52.188;8.602;2022-07-29T15:26:13;7.57;;;3.33;;
66739;SDS011;53653;52.188;8.602;2022-07-29T15:28:39;10.83;;;3.60;;
66739;SDS011;53653;52.188;8.602;2022-07-29T15:31:05;10.43;;;3.72;;
66739;SDS011;53653;52.188;8.602;2022-07-29T15:33:30;16.47;;;3.73;;
66739;SDS011;53653;52.188;8.602;2022-07-29T15:35:56;8.87;;;3.60;;
66739;SDS011;53653;52.188;8.602;2022-07-29T15:38:21;12.05;;;3.80;;
66739;SDS011;53653;52.188;8.602;2022-07-29T15:40:47;6.93;;;3.10;;
66739;SDS011;53653;52.188;8.602;2022-07-29T15:43:12;14.40;;;4.17;;
66739;SDS011;53653;52.188;8.602;2022-07-29T15:45:39;7.97;;;3.47;;
66739;SDS011;53653;52.188;8.602;2022-07-29T15:48:06;11.50;;;3.40;;
66739;SDS011;53653;52.188;8.602;2022-07-29T15:50:33;13.03;;;3.73;;
66739;SDS011;53653;52.188;8.602;2022-07-29T15:52:59;11.50;;;3.67;;
66739;SDS011;53653;52.188;8.602;2022-07-29T15:55:24;10.73;;;3.65;;
66739;SDS011;53653;52.188;8.602;2022-07-29T15:57:50;10.10;;;3.57;;
66739;SDS011;53653;52.188;8.602;2022-07-29T16:00:15;11.63;;;3.40;;